Time;durP1;ratioP1;P1;durP2;ratioP2;P2;SDS_P1;SDS_P2;PMS_P1;PMS_P2;Temp;Humidity;BMP_temperature;BMP_pressure;BME280_temperature;BME280_humidity;BME280_pressure;Samples;Min_cycle;Max_cycle;Signal;HPM_P1;HPM_P2
2021/09/14 00:02:18;;;;;;;6.13;2.20;;;18.10;74.00;;;;;;5151773;27;20039;-74
2021/09/14 00:04:44;;;;;;;6.88;2.42;;;18.20;74.40;;;;;;5153655;27;20046;-75
2021/09/14 00:07:10;;;;;;;5.78;2.90;;;18.10;74.50;;;;;;5153592;27;20442;-75
2021/09/14 00:09:36;;;;;;;5.82;2.63;;;18.10;74.70;;;;;;5153641;27;20037;-75
2021/09/14 00:12:02;;;;;;;7.05;2.63;;;18.10;74.80;;;;;;5151841;27;20386;-76
2021/09/14 00:14:28;;;;;;;3.95;2.20;;;18.10;74.90;;;;;;5152727;27;20034;-75
2021/09/14 00:16:53;;;;;;;6.38;2.42;;;18.00;75.00;;;;;;5149779;27;20023;-74
2021/09/14 00:19:19;;;;;;;6.15;2.30;;;18.00;75.10;;;;;;5151068;27;20108;-74
2021/09/14 00:21:45;;;;;;;4.80;2.42;;;18.00;75.20;;;;;;5152444;27;20049;-75
2021/09/14 00:24:11;;;;;;;9.25;2.28;;;18.00;75.20;;;;;;5151532;27;20516;-75
2021/09/14 00:26:37;;;;;;;7.47;2.30;;;17.90;75.20;;;;;;5151552;27;20107;-75
2021/09/14 00:29:03;;;;;;;7.00;2.95;;;17.90;75.30;;;;;;5152321;27;20034;-75
2021/09/14 00:31:29;;;;;;;3.95;2.05;;;17.90;75.30;;;;;;5151559;27;20079;-75
2021/09/14 00:33:54;;;;;;;3.47;1.90;;;17.90;75.10;;;;;;5153672;27;20462;-75
2021/09/14 00:36:20;;;;;;;10.00;2.38;;;17.90;74.90;;;;;;5151207;27;20046;-75
2021/09/14 00:38:46;;;;;;;5.38;2.42;;;17.90;74.60;;;;;;5151764;27;20481;-76
2021/09/14 00:41:12;;;;;;;4.15;2.03;;;17.90;74.50;;;;;;5150270;27;20023;-75
2021/09/14 00:43:38;;;;;;;5.55;2.10;;;17.80;74.30;;;;;;5134273;27;20042;-75
2021/09/14 00:46:04;;;;;;;4.68;2.00;;;17.80;74.10;;;;;;5151968;27;20029;-75
2021/09/14 00:48:30;;;;;;;3.30;2.10;;;17.80;74.20;;;;;;5127705;27;20027;-75
2021/09/14 00:50:56;;;;;;;8.90;2.05;;;17.80;74.40;;;;;;5131547;27;20088;-75
2021/09/14 00:53:25;;;;;;;4.05;1.98;;;17.80;74.60;;;;;;5152449;27;20485;-75
2021/09/14 00:55:52;;;;;;;4.10;2.25;;;17.80;74.70;;;;;;5133374;27;20050;-75
2021/09/14 00:58:17;;;;;;;5.47;2.35;;;17.70;74.80;;;;;;5151489;27;20027;-75
2021/09/14 01:00:43;;;;;;;5.53;2.33;;;17.80;75.00;;;;;;5137597;27;20041;-75
2021/09/14 01:03:10;;;;;;;5.38;2.00;;;17.80;74.80;;;;;;5137619;27;20073;-75
2021/09/14 01:05:35;;;;;;;2.75;2.08;;;17.70;74.40;;;;;;5154264;27;20054;-75
2021/09/14 01:08:02;;;;;;;4.55;2.25;;;17.70;74.30;;;;;;5156258;27;20033;-75
2021/09/14 01:10:29;;;;;;;2.65;1.88;;;17.70;74.30;;;;;;5157193;27;20018;-75
2021/09/14 01:12:55;;;;;;;5.35;2.00;;;17.60;74.00;;;;;;5137591;27;20054;-75
2021/09/14 01:15:20;;;;;;;4.97;2.05;;;17.60;74.00;;;;;;5137295;27;20069;-75
2021/09/14 01:17:46;;;;;;;4.80;2.03;;;17.60;74.00;;;;;;5136788;27;20037;-75
2021/09/14 01:20:12;;;;;;;4.72;2.00;;;17.60;74.10;;;;;;5137029;27;20034;-75
2021/09/14 01:22:38;;;;;;;2.45;1.63;;;17.60;74.10;;;;;;5153163;27;20059;-75
2021/09/14 01:25:15;;;;;;;12.90;2.13;;;17.50;74.00;;;;;;5137818;27;20027;-75
2021/09/14 01:27:41;;;;;;;3.67;2.20;;;17.50;74.20;;;;;;5131336;27;20057;-75
2021/09/14 01:30:12;;;;;;;5.15;1.90;;;17.50;74.40;;;;;;5156651;27;20054;-75
2021/09/14 01:32:39;;;;;;;4.63;2.25;;;17.50;74.30;;;;;;5137883;27;20027;-76
2021/09/14 01:35:20;;;;;;;3.95;2.15;;;17.40;74.20;;;;;;5137548;27;20027;-75
2021/09/14 01:37:52;;;;;;;3.70;2.10;;;17.40;74.40;;;;;;5137681;27;20023;-75
2021/09/14 01:40:18;;;;;;;8.77;2.60;;;17.40;74.30;;;;;;5137624;27;20030;-75
2021/09/14 01:42:48;;;;;;;7.93;2.80;;;17.40;74.50;;;;;;5136030;27;20192;-75
2021/09/14 01:45:14;;;;;;;5.63;2.40;;;17.40;74.80;;;;;;5156852;27;20110;-75
2021/09/14 01:47:41;;;;;;;7.43;2.45;;;17.30;74.90;;;;;;5134232;27;20294;-75
2021/09/14 01:50:09;;;;;;;3.40;2.10;;;17.30;74.70;;;;;;5138156;27;20527;-75
2021/09/14 01:52:35;;;;;;;4.57;2.45;;;17.30;74.70;;;;;;5155404;27;20034;-75
2021/09/14 01:55:06;;;;;;;8.30;2.55;;;17.30;74.90;;;;;;5133633;27;20027;-75
2021/09/14 01:57:34;;;;;;;6.47;2.20;;;17.30;74.70;;;;;;5137512;27;20033;-75
2021/09/14 02:00:04;;;;;;;2.10;1.75;;;17.20;74.60;;;;;;5154989;27;20190;-75
2021/09/14 02:23:45;;;;;;;18.90;2.45;;;17.20;75.30;;;;;;5135091;27;20030;-74
2021/09/14 02:33:43;;;;;;;4.68;2.17;;;17.00;76.40;;;;;;5086926;27;20035;-75
2021/09/14 02:38:41;;;;;;;7.63;2.60;;;16.90;76.70;;;;;;5153886;27;20022;-75
2021/09/14 02:43:55;;;;;;;4.00;2.20;;;16.90;76.80;;;;;;5131627;27;20437;-75
2021/09/14 03:00:05;;;;;;;3.35;2.10;;;16.70;77.70;;;;;;5125286;27;20026;-75
2021/09/14 03:02:31;;;;;;;3.47;2.42;;;16.70;77.80;;;;;;5122864;27;20121;-75
2021/09/14 03:04:57;;;;;;;7.40;2.60;;;16.70;77.80;;;;;;5131509;27;20050;-75
2021/09/14 03:07:22;;;;;;;4.78;2.63;;;16.70;78.00;;;;;;5153605;27;20401;-75
2021/09/14 03:09:48;;;;;;;4.30;2.28;;;16.70;78.10;;;;;;5134302;27;20027;-75
2021/09/14 03:12:14;;;;;;;8.30;2.65;;;16.70;78.20;;;;;;5134817;27;20074;-75
2021/09/14 03:14:44;;;;;;;5.07;2.50;;;16.60;78.20;;;;;;5135333;27;20030;-75
2021/09/14 03:17:10;;;;;;;7.22;2.60;;;16.60;78.30;;;;;;5135467;27;20595;-75
2021/09/14 03:19:36;;;;;;;4.78;3.10;;;16.50;78.40;;;;;;5153740;27;20110;-75
2021/09/14 03:22:02;;;;;;;7.45;3.25;;;16.50;78.70;;;;;;5133894;27;20126;-75
2021/09/14 03:24:28;;;;;;;7.47;4.07;;;16.50;78.90;;;;;;5135435;27;20163;-75
2021/09/14 03:26:57;;;;;;;7.93;3.30;;;16.50;79.10;;;;;;5133046;27;20026;-75
2021/09/14 03:29:23;;;;;;;8.35;3.70;;;16.50;79.30;;;;;;5129617;27;20025;-75
2021/09/14 03:31:49;;;;;;;4.97;2.97;;;16.50;79.60;;;;;;5135968;27;20030;-76
2021/09/14 03:34:14;;;;;;;9.93;3.08;;;16.50;79.90;;;;;;5133771;27;20023;-75
2021/09/14 03:36:41;;;;;;;13.05;3.03;;;16.50;80.20;;;;;;5133797;27;20030;-75
2021/09/14 03:39:07;;;;;;;7.25;3.15;;;16.50;80.40;;;;;;5153116;27;20041;-75
2021/09/14 03:41:33;;;;;;;7.97;3.05;;;16.50;80.60;;;;;;5133896;27;20038;-75
2021/09/14 03:43:59;;;;;;;8.98;2.97;;;16.50;80.70;;;;;;5136081;27;20363;-75
2021/09/14 03:46:24;;;;;;;8.25;4.43;;;16.40;80.80;;;;;;5151822;27;20074;-75
2021/09/14 03:48:51;;;;;;;7.97;3.33;;;16.50;81.00;;;;;;5133783;27;20031;-75
2021/09/14 03:51:19;;;;;;;5.88;3.25;;;16.50;81.10;;;;;;5133556;27;20071;-74
2021/09/14 03:53:45;;;;;;;7.50;3.28;;;16.40;81.20;;;;;;5153687;27;20010;-75
2021/09/14 03:56:11;;;;;;;4.72;2.97;;;16.50;81.30;;;;;;5132481;27;20034;-75
2021/09/14 03:58:38;;;;;;;9.68;3.50;;;16.40;81.50;;;;;;5135135;27;20079;-75
2021/09/14 04:01:06;;;;;;;8.23;3.17;;;16.40;81.60;;;;;;5134733;27;20160;-75
2021/09/14 04:06:09;;;;;;;10.43;3.20;;;16.40;81.90;;;;;;5128802;27;20110;-75
2021/09/14 04:08:51;;;;;;;9.68;2.80;;;16.40;81.90;;;;;;5144991;27;20038;-76
2021/09/14 04:11:21;;;;;;;5.78;3.05;;;16.40;81.90;;;;;;5135437;27;20492;-75
2021/09/14 04:13:49;;;;;;;8.75;3.03;;;16.40;81.90;;;;;;5128497;27;20023;-77
2021/09/14 04:16:15;;;;;;;10.15;2.97;;;16.40;82.00;;;;;;5132913;27;20014;-77
2021/09/14 04:18:42;;;;;;;6.38;3.00;;;16.40;82.00;;;;;;5133506;27;20034;-75
2021/09/14 04:21:08;;;;;;;6.90;3.65;;;16.40;82.20;;;;;;5134434;27;20393;-77
2021/09/14 04:23:34;;;;;;;9.27;4.00;;;16.40;82.30;;;;;;5132646;27;20126;-75
2021/09/14 04:25:59;;;;;;;7.70;4.10;;;16.40;82.60;;;;;;5134583;27;20485;-74
2021/09/14 04:28:25;;;;;;;11.27;4.75;;;16.30;82.90;;;;;;5135122;27;20068;-74
2021/09/14 04:30:51;;;;;;;12.05;3.88;;;16.40;83.30;;;;;;5132141;27;20031;-76
2021/09/14 04:33:17;;;;;;;6.15;3.55;;;16.40;83.50;;;;;;5134248;27;20022;-76
2021/09/14 04:35:42;;;;;;;9.05;4.32;;;16.40;83.70;;;;;;5150205;27;20030;-78
2021/09/14 04:38:08;;;;;;;11.15;3.78;;;16.30;83.90;;;;;;5129862;27;20027;-74
2021/09/14 04:40:34;;;;;;;11.55;4.30;;;16.40;84.30;;;;;;5133989;27;20022;-74
2021/09/14 04:43:02;;;;;;;8.27;4.70;;;16.40;84.60;;;;;;5133379;27;20117;-79
2021/09/14 04:45:28;;;;;;;12.50;4.63;;;16.40;84.80;;;;;;5132890;27;20105;-75
2021/09/14 04:47:54;;;;;;;8.05;3.92;;;16.40;85.10;;;;;;5131434;27;20111;-75
2021/09/14 04:50:20;;;;;;;5.95;4.10;;;16.40;85.30;;;;;;5131170;27;21215;-75
2021/09/14 04:52:45;;;;;;;12.52;4.10;;;16.40;85.50;;;;;;5131381;27;20015;-76
2021/09/14 04:55:11;;;;;;;8.50;4.50;;;16.40;85.50;;;;;;5131397;27;20401;-76
2021/09/14 04:57:37;;;;;;;12.75;4.60;;;16.50;85.80;;;;;;5150695;27;20027;-76
2021/09/14 05:00:05;;;;;;;14.00;4.05;;;16.50;86.00;;;;;;5133314;27;20054;-77
2021/09/14 05:02:33;;;;;;;8.32;4.32;;;16.50;86.10;;;;;;5133670;27;20027;-82
2021/09/14 05:04:59;;;;;;;7.95;4.40;;;16.50;86.30;;;;;;5133029;27;20413;-73
2021/09/14 05:07:26;;;;;;;10.80;4.10;;;16.60;86.50;;;;;;5132527;27;20026;-76
2021/09/14 05:09:52;;;;;;;8.23;4.55;;;16.50;86.50;;;;;;5149287;27;20035;-76
2021/09/14 05:12:19;;;;;;;9.90;3.97;;;16.50;86.60;;;;;;5132711;27;20018;-79
2021/09/14 05:14:44;;;;;;;9.13;4.10;;;16.60;86.80;;;;;;5133593;27;20074;-77
2021/09/14 05:17:16;;;;;;;12.27;4.50;;;16.60;86.90;;;;;;5131587;27;20023;-74
2021/09/14 05:19:55;;;;;;;8.82;3.58;;;16.60;87.00;;;;;;5133738;27;20022;-75
2021/09/14 05:22:28;;;;;;;6.88;3.67;;;16.60;87.10;;;;;;5150120;27;20046;-79
2021/09/14 05:24:54;;;;;;;13.57;4.00;;;16.60;87.10;;;;;;5123625;28;20020;-78
2021/09/14 05:27:20;;;;;;;12.32;3.80;;;16.60;87.20;;;;;;5131570;27;20038;-76
2021/09/14 05:29:47;;;;;;;10.25;4.03;;;16.60;87.10;;;;;;5152446;27;20018;-73
2021/09/14 05:32:17;;;;;;;10.60;3.72;;;16.60;87.10;;;;;;5131551;27;20035;-75
2021/09/14 05:34:47;;;;;;;11.85;4.10;;;16.60;87.10;;;;;;5128234;27;20496;-76
2021/09/14 05:37:14;;;;;;;10.93;3.78;;;16.60;87.00;;;;;;5132455;27;20021;-76
2021/09/14 05:39:39;;;;;;;11.35;3.92;;;16.60;87.70;;;;;;5114246;28;20059;-75
2021/09/14 05:42:09;;;;;;;8.15;3.70;;;16.60;87.00;;;;;;5127064;27;20053;-75
2021/09/14 05:44:35;;;;;;;9.52;4.60;;;16.60;87.00;;;;;;5131817;27;20122;-74
2021/09/14 05:47:06;;;;;;;9.10;3.75;;;16.70;87.00;;;;;;5134602;27;20064;-74
2021/09/14 05:49:33;;;;;;;8.45;4.07;;;16.70;87.10;;;;;;5135062;27;20030;-75
2021/09/14 05:51:59;;;;;;;8.18;3.60;;;16.60;87.00;;;;;;5136093;27;20519;-75
2021/09/14 05:54:25;;;;;;;11.73;4.15;;;16.70;87.60;;;;;;5128123;27;20034;-75
2021/09/14 05:56:54;;;;;;;7.03;3.75;;;16.70;87.00;;;;;;5134257;27;20022;-75
2021/09/14 05:59:20;;;;;;;7.13;3.60;;;16.80;87.20;;;;;;5153704;27;20071;-75
2021/09/14 06:01:45;;;;;;;9.05;3.88;;;16.70;87.20;;;;;;5153089;27;20103;-75
2021/09/14 06:04:11;;;;;;;13.02;4.07;;;16.70;87.20;;;;;;5135849;27;20026;-76
2021/09/14 06:06:37;;;;;;;10.68;4.35;;;16.70;87.30;;;;;;5153143;27;20526;-75
2021/09/14 06:09:03;;;;;;;14.38;4.68;;;16.70;87.40;;;;;;5134171;27;20030;-75
2021/09/14 06:11:33;;;;;;;11.20;4.00;;;16.70;87.60;;;;;;5135375;27;20022;-76
2021/09/14 06:14:00;;;;;;;6.07;3.63;;;16.70;87.70;;;;;;5135607;27;20049;-75
2021/09/14 06:16:26;;;;;;;8.32;3.78;;;16.70;87.70;;;;;;5135162;27;20068;-76
2021/09/14 06:18:51;;;;;;;9.82;4.00;;;16.70;87.60;;;;;;5126949;27;20102;-77
2021/09/14 06:21:17;;;;;;;6.28;3.65;;;16.70;87.70;;;;;;5137045;27;20091;-76
2021/09/14 06:23:43;;;;;;;5.57;2.78;;;16.80;87.70;;;;;;5135069;27;20039;-75
2021/09/14 06:26:11;;;;;;;11.25;3.92;;;16.80;87.50;;;;;;5135700;27;20070;-75
2021/09/14 06:28:38;;;;;;;7.82;3.55;;;16.80;87.40;;;;;;5135768;27;20030;-75
2021/09/14 06:31:04;;;;;;;12.40;3.70;;;16.80;87.30;;;;;;5152741;27;20018;-74
2021/09/14 06:33:32;;;;;;;9.73;3.88;;;16.80;87.40;;;;;;5153478;27;20019;-75
2021/09/14 06:35:58;;;;;;;10.45;3.70;;;16.90;87.60;;;;;;5135414;27;20023;-75
2021/09/14 06:38:28;;;;;;;6.95;4.03;;;16.90;87.70;;;;;;5133953;27;20023;-75
2021/09/14 06:40:54;;;;;;;12.68;3.60;;;16.90;87.80;;;;;;5132941;27;20087;-76
2021/09/14 06:43:25;;;;;;;8.00;3.70;;;17.00;88.10;;;;;;5133745;27;20113;-75
2021/09/14 06:46:11;;;;;;;16.58;5.22;;;17.00;88.30;;;;;;5153304;27;20039;-76
2021/09/14 06:48:45;;;;;;;8.07;4.50;;;17.00;88.40;;;;;;5126219;27;20027;-76
2021/09/14 06:51:10;;;;;;;9.57;4.57;;;17.00;88.60;;;;;;5153701;27;20087;-76
2021/09/14 06:53:36;;;;;;;9.57;4.32;;;17.00;88.70;;;;;;5153635;27;20020;-75
2021/09/14 06:56:02;;;;;;;9.93;4.07;;;17.10;89.00;;;;;;5155290;27;20439;-76
2021/09/14 06:58:36;;;;;;;23.67;3.10;;;17.10;89.10;;;;;;5135437;27;20026;-80
2021/09/14 07:01:02;;;;;;;7.57;2.90;;;17.10;88.90;;;;;;5154367;27;20062;-75
2021/09/14 07:03:28;;;;;;;9.93;3.42;;;17.10;88.70;;;;;;5152546;27;20081;-76
2021/09/14 07:05:54;;;;;;;9.70;3.53;;;17.20;88.50;;;;;;5154762;27;20403;-79
2021/09/14 07:08:21;;;;;;;11.73;4.45;;;17.20;87.70;;;;;;5152080;27;20045;-75
2021/09/14 07:10:47;;;;;;;11.77;3.90;;;17.20;87.60;;;;;;5153102;27;20489;-75
2021/09/14 07:13:13;;;;;;;12.32;3.90;;;17.20;87.80;;;;;;5154270;27;20037;-76
2021/09/14 07:15:38;;;;;;;11.35;4.18;;;17.20;87.70;;;;;;5153770;27;20031;-76
2021/09/14 07:18:04;;;;;;;8.15;3.75;;;17.30;87.80;;;;;;5153271;27;20042;-76
2021/09/14 07:20:30;;;;;;;8.10;4.10;;;17.30;87.70;;;;;;5152909;27;20090;-75
2021/09/14 07:22:57;;;;;;;11.55;3.60;;;17.40;88.00;;;;;;5153570;27;20038;-75
2021/09/14 07:25:22;;;;;;;10.23;4.03;;;17.40;88.20;;;;;;5150899;27;20054;-76
2021/09/14 07:27:48;;;;;;;7.53;3.83;;;17.50;88.40;;;;;;5150532;27;20114;-76
2021/09/14 07:30:13;;;;;;;8.20;3.78;;;17.50;88.20;;;;;;5151760;27;20037;-75
2021/09/14 07:32:39;;;;;;;7.18;3.60;;;17.60;87.70;;;;;;5149688;27;20476;-75
2021/09/14 07:35:05;;;;;;;10.43;4.07;;;17.60;87.60;;;;;;5151920;27;20054;-76
2021/09/14 07:37:32;;;;;;;11.30;3.88;;;17.60;87.50;;;;;;5145702;27;20034;-75
2021/09/14 07:39:58;;;;;;;9.07;3.78;;;17.60;87.60;;;;;;5152778;27;20042;-75
2021/09/14 07:42:24;;;;;;;6.15;3.80;;;17.70;87.70;;;;;;5153353;27;20046;-75
2021/09/14 07:44:50;;;;;;;11.95;3.90;;;17.70;87.80;;;;;;5151605;27;20026;-75
2021/09/14 07:47:16;;;;;;;11.20;3.60;;;17.80;87.40;;;;;;5153527;27;20117;-75
2021/09/14 07:49:42;;;;;;;16.98;4.32;;;17.80;87.40;;;;;;5152474;27;20064;-75
2021/09/14 07:52:08;;;;;;;9.70;3.78;;;17.80;87.50;;;;;;5153505;27;20022;-76
2021/09/14 07:54:33;;;;;;;12.88;3.63;;;17.90;87.50;;;;;;5152101;27;20027;-75
2021/09/14 07:57:00;;;;;;;10.18;3.60;;;17.90;87.20;;;;;;5153361;27;20032;-75
2021/09/14 07:59:25;;;;;;;7.45;3.78;;;18.00;87.00;;;;;;5153635;27;20076;-75
2021/09/14 08:01:51;;;;;;;8.93;3.83;;;18.00;87.00;;;;;;5152341;27;20026;-75
2021/09/14 08:04:16;;;;;;;9.13;4.20;;;18.00;87.30;;;;;;5153825;27;20052;-76
2021/09/14 08:06:42;;;;;;;10.93;4.07;;;18.10;86.80;;;;;;5151498;27;20043;-76
2021/09/14 08:09:08;;;;;;;13.73;4.40;;;18.20;87.10;;;;;;5151536;27;20022;-76
2021/09/14 08:11:33;;;;;;;10.32;4.05;;;18.20;87.50;;;;;;5153753;27;20067;-76
2021/09/14 08:13:59;;;;;;;7.30;3.47;;;18.20;87.20;;;;;;5151559;27;20022;-76
2021/09/14 08:16:25;;;;;;;9.65;4.30;;;18.20;87.30;;;;;;5152314;27;20055;-75
2021/09/14 08:18:50;;;;;;;9.20;3.65;;;18.20;87.60;;;;;;5151703;27;20429;-76
2021/09/14 08:21:16;;;;;;;11.40;4.25;;;18.30;87.40;;;;;;5152464;27;20122;-76
2021/09/14 08:23:42;;;;;;;13.98;4.13;;;18.40;87.10;;;;;;5152774;27;20370;-75
2021/09/14 08:26:07;;;;;;;9.05;3.95;;;18.40;87.20;;;;;;5152484;27;20025;-76
2021/09/14 08:28:33;;;;;;;10.45;4.25;;;18.40;87.10;;;;;;5152280;27;20538;-76
2021/09/14 08:31:08;;;;;;;14.40;4.40;;;18.50;87.10;;;;;;5134159;27;20118;-75
2021/09/14 08:33:34;;;;;;;13.00;4.40;;;18.50;87.30;;;;;;5153219;27;20440;-75
2021/09/14 08:36:00;;;;;;;5.97;3.47;;;18.60;87.50;;;;;;5152384;27;20087;-76
2021/09/14 08:38:27;;;;;;;16.58;4.45;;;18.50;87.20;;;;;;5126928;27;20027;-76
2021/09/14 08:40:53;;;;;;;9.70;4.20;;;18.60;87.10;;;;;;5151153;27;20030;-76
2021/09/14 08:43:19;;;;;;;9.80;5.82;;;18.60;87.20;;;;;;5150293;27;20098;-75
2021/09/14 08:45:45;;;;;;;15.05;5.43;;;18.60;86.90;;;;;;5151940;27;20030;-76
2021/09/14 08:48:11;;;;;;;11.57;5.13;;;18.70;86.40;;;;;;5152295;27;20095;-75
2021/09/14 08:50:37;;;;;;;10.15;4.25;;;18.70;86.30;;;;;;5152756;27;20110;-75
2021/09/14 08:53:05;;;;;;;14.07;5.75;;;18.70;86.20;;;;;;5152709;27;20601;-76
2021/09/14 08:55:33;;;;;;;7.13;4.50;;;18.80;86.20;;;;;;5149734;27;20027;-75
2021/09/14 08:57:58;;;;;;;10.85;4.78;;;18.80;85.70;;;;;;5151423;27;20030;-75
2021/09/14 09:00:38;;;;;;;10.75;4.45;;;18.80;85.60;;;;;;5151065;27;20027;-76
2021/09/14 09:03:05;;;;;;;11.73;5.63;;;18.90;85.90;;;;;;5152658;27;20035;-76
2021/09/14 09:05:33;;;;;;;12.50;5.90;;;18.90;85.90;;;;;;5152007;27;20447;-75
2021/09/14 09:07:59;;;;;;;9.00;5.25;;;18.90;85.90;;;;;;5153113;27;20023;-76
2021/09/14 09:10:25;;;;;;;11.30;5.90;;;19.00;85.80;;;;;;5150736;27;20035;-75
2021/09/14 09:12:51;;;;;;;10.15;5.15;;;19.00;85.50;;;;;;5148999;27;20038;-75
2021/09/14 09:15:30;;;;;;;8.02;4.60;;;19.10;85.40;;;;;;5152026;27;20019;-75
2021/09/14 09:18:11;;;;;;;17.05;4.95;;;19.10;85.00;;;;;;5148898;27;20051;-76
2021/09/14 09:20:40;;;;;;;13.27;5.47;;;19.20;84.90;;;;;;5149613;27;20029;-76
2021/09/14 09:23:11;;;;;;;11.82;5.10;;;19.20;84.70;;;;;;5154779;27;20039;-75
2021/09/14 09:25:38;;;;;;;10.25;5.47;;;19.20;84.50;;;;;;5155033;27;20489;-76
2021/09/14 09:28:06;;;;;;;13.60;5.93;;;19.20;85.30;;;;;;5154683;27;20461;-76
2021/09/14 09:30:36;;;;;;;13.18;6.43;;;19.20;84.50;;;;;;5155997;27;20026;-76
2021/09/14 09:33:04;;;;;;;13.13;4.95;;;19.20;84.70;;;;;;5154242;27;20041;-76
2021/09/14 09:35:31;;;;;;;12.48;5.85;;;19.30;84.50;;;;;;5155106;27;20029;-76
2021/09/14 09:37:58;;;;;;;13.50;6.32;;;19.30;84.30;;;;;;5156087;27;20591;-76
2021/09/14 09:40:24;;;;;;;10.77;5.38;;;19.40;84.70;;;;;;5155414;27;20027;-76
2021/09/14 09:42:50;;;;;;;8.77;4.75;;;19.40;84.40;;;;;;5154449;27;20035;-76
2021/09/14 09:45:18;;;;;;;11.27;5.22;;;19.50;84.30;;;;;;5155371;27;20018;-76
2021/09/14 09:47:48;;;;;;;11.38;4.72;;;19.50;84.20;;;;;;5154415;27;20035;-75
2021/09/14 09:50:13;;;;;;;11.43;6.10;;;19.50;84.20;;;;;;5154205;27;20026;-74
2021/09/14 09:52:40;;;;;;;12.82;6.57;;;19.50;84.30;;;;;;5155831;27;20046;-74
2021/09/14 09:55:07;;;;;;;17.27;6.93;;;19.60;84.30;;;;;;5154948;27;20067;-75
2021/09/14 09:57:33;;;;;;;14.38;6.80;;;19.70;84.20;;;;;;5156396;27;20414;-75
2021/09/14 09:59:59;;;;;;;13.82;6.60;;;19.70;84.20;;;;;;5153782;27;20050;-75
2021/09/14 10:02:26;;;;;;;16.33;6.82;;;19.70;84.20;;;;;;5155694;27;20034;-75
2021/09/14 10:05:00;;;;;;;12.63;7.15;;;19.70;84.00;;;;;;5153342;27;20083;-75
2021/09/14 10:07:30;;;;;;;11.80;6.72;;;19.80;84.00;;;;;;5154391;27;20023;-75
2021/09/14 10:09:57;;;;;;;10.10;5.55;;;19.80;84.20;;;;;;5154856;27;20023;-75
2021/09/14 10:12:27;;;;;;;11.30;6.40;;;19.90;84.10;;;;;;5154570;27;20023;-75
2021/09/14 10:15:00;;;;;;;12.80;6.43;;;19.90;84.10;;;;;;5154847;27;20073;-75
2021/09/14 10:17:27;;;;;;;12.70;6.07;;;20.00;84.10;;;;;;5153528;27;20462;-75
2021/09/14 10:19:53;;;;;;;15.45;7.35;;;20.00;84.20;;;;;;5154976;27;20027;-75
2021/09/14 10:22:24;;;;;;;18.35;8.70;;;20.00;84.50;;;;;;5152509;27;20123;-74
2021/09/14 10:24:52;;;;;;;13.23;6.88;;;20.10;84.60;;;;;;5154614;27;20046;-75
2021/09/14 10:27:18;;;;;;;12.75;6.60;;;20.10;84.80;;;;;;5154230;27;20113;-75
2021/09/14 10:29:56;;;;;;;10.60;6.35;;;20.20;84.00;;;;;;5153042;27;20035;-75
2021/09/14 10:32:21;;;;;;;21.33;6.95;;;20.20;84.10;;;;;;5154156;27;20030;-75
2021/09/14 10:34:55;;;;;;;16.38;7.40;;;20.30;83.90;;;;;;5155135;27;20063;-75
2021/09/14 10:37:28;;;;;;;;;;;20.40;83.70;;;;;;5152105;27;20027;-75
2021/09/14 10:40:04;;;;;;;15.83;6.87;;;20.40;83.70;;;;;;5154944;27;19907;-75
2021/09/14 10:42:36;;;;;;;16.48;7.70;;;20.40;83.50;;;;;;5153168;27;20299;-75
2021/09/14 10:45:11;;;;;;;16.88;7.82;;;20.40;83.50;;;;;;5154533;27;20034;-75
2021/09/14 10:47:39;;;;;;;16.77;7.05;;;20.40;83.40;;;;;;5155105;27;20038;-74
2021/09/14 10:50:06;;;;;;;16.33;7.40;;;20.50;83.70;;;;;;5138891;27;20018;-74
2021/09/14 10:52:31;;;;;;;10.80;6.72;;;20.50;83.60;;;;;;5148185;27;20477;-75
2021/09/14 10:54:57;;;;;;;13.30;7.60;;;20.50;83.60;;;;;;5150940;27;20037;-75
2021/09/14 10:57:34;;;;;;;19.30;8.82;;;20.50;83.50;;;;;;5154634;27;20023;-74
2021/09/14 10:59:59;;;;;;;17.73;8.50;;;20.50;83.50;;;;;;5154926;27;20069;-75
2021/09/14 11:02:26;;;;;;;14.50;7.28;;;20.60;83.30;;;;;;5154985;27;20064;-75
2021/09/14 11:04:52;;;;;;;15.15;8.23;;;20.60;83.30;;;;;;5153301;27;20035;-74
2021/09/14 11:07:21;;;;;;;12.50;6.10;;;20.60;83.30;;;;;;5150934;27;20501;-74
2021/09/14 11:10:05;;;;;;;14.40;7.90;;;20.70;83.30;;;;;;5153174;27;20038;-74
2021/09/14 11:12:31;;;;;;;16.77;9.07;;;20.70;83.10;;;;;;5153047;27;20037;-74
2021/09/14 11:14:58;;;;;;;12.98;7.60;;;20.70;83.30;;;;;;5153248;27;20023;-75
2021/09/14 11:17:30;;;;;;;17.75;7.03;;;20.80;83.30;;;;;;5138983;27;20134;-74
2021/09/14 11:20:11;;;;;;;13.98;6.22;;;20.80;83.40;;;;;;5147733;27;20399;-75
2021/09/14 11:22:39;;;;;;;18.83;7.47;;;20.90;83.20;;;;;;5151401;27;20050;-74
2021/09/14 11:25:14;;;;;;;16.10;8.18;;;20.90;82.70;;;;;;5151867;27;20034;-74
2021/09/14 11:27:41;;;;;;;14.13;7.80;;;21.00;82.50;;;;;;5151971;27;20026;-75
2021/09/14 11:30:07;;;;;;;12.55;7.65;;;21.00;82.50;;;;;;5151930;27;20054;-75
2021/09/14 11:32:32;;;;;;;16.00;7.50;;;21.10;82.40;;;;;;5152448;27;20035;-75
2021/09/14 11:34:58;;;;;;;14.00;7.07;;;21.20;82.00;;;;;;5153791;27;20083;-75
2021/09/14 11:37:25;;;;;;;19.50;7.22;;;21.20;81.90;;;;;;5145902;27;20030;-75
2021/09/14 11:39:51;;;;;;;13.18;7.50;;;21.30;81.50;;;;;;5152330;27;20487;-75
2021/09/14 11:42:16;;;;;;;17.98;8.18;;;21.30;81.50;;;;;;5153737;27;20026;-75
2021/09/14 11:44:42;;;;;;;16.90;8.32;;;21.40;81.10;;;;;;5152016;27;20397;-76
2021/09/14 11:47:09;;;;;;;13.63;7.22;;;21.40;80.80;;;;;;5152554;27;20070;-76
2021/09/14 11:49:35;;;;;;;12.75;7.03;;;21.40;80.80;;;;;;5152059;27;20038;-76
2021/09/14 11:52:03;;;;;;;11.30;6.90;;;21.40;81.10;;;;;;5154405;27;20019;-76
2021/09/14 11:54:36;;;;;;;12.43;7.13;;;21.40;80.90;;;;;;5151792;27;20023;-76
2021/09/14 11:57:03;;;;;;;15.23;6.78;;;21.40;80.80;;;;;;5152271;27;20031;-76
2021/09/14 11:59:37;;;;;;;14.88;6.88;;;21.50;80.70;;;;;;5150625;27;20454;-75
2021/09/14 12:02:06;;;;;;;15.40;7.38;;;21.60;80.60;;;;;;5150829;27;20131;-77
2021/09/14 12:04:31;;;;;;;12.68;7.05;;;21.60;80.70;;;;;;5152368;27;20022;-76
2021/09/14 12:07:00;;;;;;;12.27;7.32;;;21.60;80.60;;;;;;5152454;27;20033;-76
2021/09/14 12:09:28;;;;;;;10.50;6.68;;;21.70;80.50;;;;;;5152679;27;20663;-76
2021/09/14 12:12:04;;;;;;;11.73;7.07;;;21.70;80.40;;;;;;5151685;27;20469;-78
2021/09/14 12:14:30;;;;;;;12.57;6.90;;;21.80;80.30;;;;;;5152302;27;20381;-81
2021/09/14 12:17:04;;;;;;;11.57;6.45;;;21.80;80.20;;;;;;5152152;27;20386;-76
2021/09/14 12:19:32;;;;;;;13.10;7.35;;;21.90;80.20;;;;;;5153718;27;20030;-76
2021/09/14 12:21:58;;;;;;;10.55;6.90;;;21.80;79.80;;;;;;5152155;27;20051;-76
2021/09/14 12:24:24;;;;;;;17.00;6.90;;;21.90;80.00;;;;;;5153708;27;20035;-76
2021/09/14 12:26:51;;;;;;;14.80;6.82;;;21.90;80.20;;;;;;5151606;27;20031;-76
2021/09/14 12:29:18;;;;;;;19.77;6.78;;;21.90;80.00;;;;;;5152270;27;20026;-76
2021/09/14 12:31:44;;;;;;;9.50;4.97;;;21.90;80.10;;;;;;5153333;27;20469;-85
2021/09/14 12:34:10;;;;;;;16.00;6.78;;;21.90;80.30;;;;;;5151795;27;20423;-76
2021/09/14 12:36:37;;;;;;;11.05;6.50;;;22.00;79.90;;;;;;5152810;27;20027;-78
2021/09/14 12:39:03;;;;;;;17.85;6.20;;;22.00;79.90;;;;;;5153361;27;20071;-79
2021/09/14 12:41:29;;;;;;;12.43;6.15;;;22.10;80.00;;;;;;5151918;27;20031;-80
2021/09/14 12:43:55;;;;;;;10.80;6.72;;;22.10;79.70;;;;;;5151313;27;20353;-75
2021/09/14 12:46:21;;;;;;;10.93;6.00;;;22.10;79.80;;;;;;5152686;27;20027;-75
2021/09/14 12:48:47;;;;;;;11.32;6.30;;;22.10;80.00;;;;;;5151578;27;20038;-76
2021/09/14 12:51:13;;;;;;;13.50;6.53;;;22.20;80.00;;;;;;5152751;27;20019;-77
2021/09/14 12:53:39;;;;;;;12.57;6.63;;;22.20;80.30;;;;;;5153297;27;20051;-74
2021/09/14 12:56:06;;;;;;;11.73;6.40;;;22.20;79.10;;;;;;5155789;27;20110;-74
2021/09/14 12:58:32;;;;;;;11.60;6.53;;;22.30;79.00;;;;;;5156061;27;20508;-74
2021/09/14 13:00:57;;;;;;;15.77;6.78;;;22.30;79.30;;;;;;5156126;27;20023;-74
2021/09/14 13:03:23;;;;;;;14.30;5.78;;;22.30;79.40;;;;;;5154337;27;20027;-75
2021/09/14 13:05:48;;;;;;;8.90;5.43;;;22.30;79.40;;;;;;5156654;27;20397;-78
2021/09/14 13:08:14;;;;;;;14.27;6.15;;;22.30;79.60;;;;;;5155505;27;20038;-75
2021/09/14 13:10:40;;;;;;;10.32;5.13;;;22.40;79.40;;;;;;5156036;27;20018;-75
2021/09/14 13:18:35;;;;;;;9.02;6.03;;;22.40;79.70;;;;;;5153963;27;20074;-75
2021/09/14 13:21:01;;;;;;;14.02;6.43;;;22.50;80.00;;;;;;5155723;27;20077;-74
2021/09/14 13:23:27;;;;;;;14.90;6.47;;;22.50;79.60;;;;;;5154958;27;20035;-75
2021/09/14 13:25:53;;;;;;;9.85;5.65;;;22.60;79.40;;;;;;5153953;27;20063;-75
2021/09/14 13:28:19;;;;;;;12.00;7.20;;;22.50;79.80;;;;;;5155586;27;20030;-75
2021/09/14 13:30:45;;;;;;;10.15;6.65;;;22.60;79.40;;;;;;5152920;27;20030;-74
2021/09/14 13:33:11;;;;;;;10.27;6.78;;;22.60;79.40;;;;;;5154142;27;20126;-75
2021/09/14 13:35:37;;;;;;;17.02;7.30;;;22.70;79.30;;;;;;5154020;27;20109;-75
2021/09/14 13:38:03;;;;;;;14.82;7.68;;;22.80;78.90;;;;;;5153592;27;20072;-76